Time;durP1;ratioP1;P1;durP2;ratioP2;P2;SDS_P1;SDS_P2;PMS_P1;PMS_P2;Temp;Humidity;BMP_temperature;BMP_pressure;BME280_temperature;BME280_humidity;BME280_pressure;Samples;Min_cycle;Max_cycle;Signal;HPM_P1;HPM_P2
2022/03/24 00:00:24;;;;;;;4.97;4.18;;;;;;;4.09;53.61;62427.44;5035758;28;20221;-79
2022/03/24 00:02:52;;;;;;;7.18;4.88;;;;;;;4.14;53.06;62427.56;5043700;28;20248;-79
2022/03/24 00:05:19;;;;;;;10.95;4.55;;;;;;;4.24;52.90;62439.84;5043829;28;20229;-80
2022/03/24 00:07:46;;;;;;;6.35;4.45;;;;;;;4.28;52.85;62436.91;5039688;28;20278;-79
2022/03/24 00:10:13;;;;;;;8.77;4.88;;;;;;;4.30;52.86;62438.97;5032527;28;20234;-78
2022/03/24 00:12:40;;;;;;;10.48;4.30;;;;;;;4.31;53.08;62445.06;5027120;28;20272;-78
2022/03/24 00:15:09;;;;;;;10.52;4.80;;;;;;;4.25;53.61;62438.88;5044428;28;20194;-79
2022/03/24 00:17:36;;;;;;;8.52;5.18;;;;;;;4.20;54.78;62430.69;5042517;28;20219;-78
2022/03/24 00:20:04;;;;;;;9.77;5.72;;;;;;;4.08;55.99;62420.88;5048214;28;20202;-78
2022/03/24 00:22:31;;;;;;;5.65;4.53;;;;;;;4.11;55.83;62427.00;5050464;28;20277;-78
2022/03/24 00:24:58;;;;;;;8.57;4.65;;;;;;;4.16;56.19;62424.06;5047671;28;20491;-79
2022/03/24 00:27:25;;;;;;;6.40;4.35;;;;;;;4.01;56.90;62416.69;5048254;28;20248;-78
2022/03/24 00:29:52;;;;;;;13.43;4.90;;;;;;;3.98;57.10;62413.09;5049640;28;20285;-78
2022/03/24 00:32:20;;;;;;;9.52;5.30;;;;;;;3.95;57.06;62408.00;5050122;28;20218;-79
2022/03/24 00:34:47;;;;;;;8.23;4.63;;;;;;;3.97;56.87;62412.09;5050594;28;20198;-79
2022/03/24 00:37:14;;;;;;;8.05;5.18;;;;;;;4.02;57.26;62415.19;5050175;28;20229;-79
2022/03/24 00:39:41;;;;;;;11.00;5.15;;;;;;;4.00;57.11;62410.66;5041485;28;20526;-78
2022/03/24 00:42:11;;;;;;;8.75;5.00;;;;;;;3.97;57.15;62412.09;5029921;28;20223;-78
2022/03/24 00:44:40;;;;;;;8.45;5.05;;;;;;;4.01;56.82;62413.66;5030171;28;20191;-78
2022/03/24 00:47:07;;;;;;;6.95;4.55;;;;;;;3.99;57.20;62409.59;5050304;28;20230;-78
2022/03/24 00:49:35;;;;;;;8.60;5.35;;;;;;;3.96;57.13;62411.03;5050949;28;20233;-78
2022/03/24 00:52:03;;;;;;;10.20;5.43;;;;;;;3.96;57.38;62409.03;5052540;28;20218;-78
2022/03/24 00:54:30;;;;;;;8.63;5.78;;;;;;;3.92;57.08;62401.91;5052368;28;20243;-79
2022/03/24 00:56:57;;;;;;;12.82;5.28;;;;;;;3.93;57.57;62400.41;5051655;28;20272;-79
2022/03/24 00:59:24;;;;;;;9.88;6.40;;;;;;;3.88;58.49;62398.31;5049587;28;20245;-80
2022/03/24 01:01:52;;;;;;;8.00;5.70;;;;;;;3.84;58.23;62398.69;5055062;28;20256;-79
2022/03/24 01:04:19;;;;;;;8.90;6.28;;;;;;;3.79;58.74;62386.53;5053357;28;20225;-77
2022/03/24 01:06:47;;;;;;;8.32;5.43;;;;;;;3.77;57.56;62388.97;5052522;28;20225;-79
2022/03/24 01:09:14;;;;;;;7.82;5.57;;;;;;;3.76;57.71;62385.44;5050417;28;20198;-79
2022/03/24 01:11:41;;;;;;;10.80;5.80;;;;;;;3.78;58.63;62388.00;5050036;28;20241;-79
2022/03/24 01:14:09;;;;;;;8.38;5.47;;;;;;;3.69;58.53;62378.25;5049808;28;20210;-79
2022/03/24 01:16:36;;;;;;;8.35;5.82;;;;;;;3.65;58.64;62379.66;5050171;28;20197;-80
2022/03/24 01:19:04;;;;;;;10.30;4.70;;;;;;;3.56;59.57;62362.84;5049995;28;20498;-79
2022/03/24 01:21:31;;;;;;;14.57;5.07;;;;;;;3.63;58.86;62372.06;5041755;28;20198;-79
2022/03/24 01:24:01;;;;;;;8.35;5.28;;;;;;;3.49;59.84;62363.72;5050572;28;20215;-80
2022/03/24 01:26:29;;;;;;;11.30;4.75;;;;;;;3.56;59.30;62370.41;5047954;28;20198;-79
2022/03/24 01:28:56;;;;;;;11.75;5.90;;;;;;;3.37;60.18;62346.34;5046493;28;20491;-78
2022/03/24 01:31:23;;;;;;;8.82;5.35;;;;;;;3.32;60.33;62340.69;5043465;28;20597;-79
2022/03/24 01:33:50;;;;;;;8.88;5.50;;;;;;;3.33;60.77;62347.28;5058916;28;20218;-78
2022/03/24 01:36:18;;;;;;;9.38;5.68;;;;;;;3.29;61.13;62340.66;5054924;28;20198;-78
2022/03/24 01:38:46;;;;;;;6.32;4.25;;;;;;;3.22;62.09;62333.47;5048143;28;20218;-80
2022/03/24 01:41:14;;;;;;;6.57;4.63;;;;;;;3.11;63.95;62319.63;5046872;28;20502;-80
2022/03/24 01:43:42;;;;;;;9.23;4.97;;;;;;;2.99;64.50;62306.78;5049779;28;20260;-79
2022/03/24 01:46:09;;;;;;;9.35;5.18;;;;;;;2.98;63.30;62305.75;5047945;28;20473;-79
2022/03/24 01:48:36;;;;;;;9.32;4.57;;;;;;;2.97;63.19;62307.25;5041055;28;20290;-79
2022/03/24 01:51:02;;;;;;;6.95;4.63;;;;;;;2.88;64.61;62298.50;5048597;28;20275;-79
2022/03/24 01:53:29;;;;;;;10.43;5.32;;;;;;;2.86;65.43;62291.44;5049832;28;20427;-80
2022/03/24 01:55:56;;;;;;;8.25;5.25;;;;;;;2.82;66.14;62289.31;5050018;28;20233;-79
2022/03/24 01:58:24;;;;;;;9.52;5.15;;;;;;;2.78;66.67;62288.22;5048735;28;20244;-79
2022/03/24 02:00:52;;;;;;;10.18;5.50;;;;;;;2.71;66.77;62283.53;5047387;28;20220;-79
2022/03/24 02:03:20;;;;;;;7.72;4.68;;;;;;;2.65;66.23;62277.38;5048929;28;20218;-80
2022/03/24 02:05:47;;;;;;;5.00;4.50;;;;;;;2.62;66.91;62274.31;5047709;28;20224;-80
2022/03/24 02:08:14;;;;;;;8.35;4.32;;;;;;;2.60;66.33;62269.75;5047369;28;20554;-80
2022/03/24 02:10:41;;;;;;;11.32;4.38;;;;;;;2.61;67.09;62267.72;5048071;28;20233;-79
2022/03/24 02:13:09;;;;;;;6.45;4.53;;;;;;;2.51;66.59;62255.47;5049101;28;20267;-79
2022/03/24 02:15:37;;;;;;;8.40;5.18;;;;;;;2.50;66.96;62256.97;5048269;28;20277;-79
2022/03/24 02:18:04;;;;;;;9.80;4.90;;;;;;;2.43;67.56;62254.28;5049020;28;20233;-80
2022/03/24 02:20:33;;;;;;;5.82;4.50;;;;;;;2.38;67.84;62246.63;5047793;28;20220;-80
2022/03/24 02:23:02;;;;;;;8.13;4.40;;;;;;;2.36;68.05;62245.09;5047115;28;20221;-79
2022/03/24 02:25:32;;;;;;;6.25;4.88;;;;;;;2.40;67.27;62248.69;5051365;28;20221;-79
2022/03/24 02:28:01;;;;;;;13.68;4.80;;;;;;;2.42;67.41;62253.75;5047567;28;20226;-78
2022/03/24 02:30:29;;;;;;;9.45;4.85;;;;;;;2.47;68.54;62256.38;5047789;28;20275;-80
2022/03/24 02:32:57;;;;;;;8.30;4.80;;;;;;;2.49;67.85;62257.91;5047599;28;20268;-79
2022/03/24 02:35:23;;;;;;;12.00;4.90;;;;;;;2.52;67.53;62258.50;5047548;28;20217;-79
2022/03/24 02:37:50;;;;;;;6.15;4.70;;;;;;;2.54;68.22;62261.06;5046748;28;20244;-78
2022/03/24 02:40:19;;;;;;;15.05;6.10;;;;;;;2.49;68.79;62255.91;5046405;28;20260;-79
2022/03/24 02:42:47;;;;;;;9.95;4.60;;;;;;;2.48;69.93;62256.91;5047125;28;20213;-78
2022/03/24 02:45:14;;;;;;;12.10;5.90;;;;;;;2.47;70.43;62253.88;5048812;28;20198;-80
2022/03/24 02:47:41;;;;;;;10.95;6.85;;;;;;;2.47;71.61;62253.38;5051236;28;20218;-80
2022/03/24 02:50:10;;;;;;;10.10;5.93;;;;;;;2.48;71.21;62254.91;5051923;28;20235;-79
2022/03/24 02:52:37;;;;;;;13.10;7.10;;;;;;;2.46;68.62;62249.81;5047702;28;20217;-79
2022/03/24 02:55:04;;;;;;;12.18;7.30;;;;;;;2.45;67.75;62251.81;5072907;28;20495;-80
2022/03/24 02:57:33;;;;;;;9.30;6.55;;;;;;;2.40;68.60;62251.69;5068866;28;20232;-79
2022/03/24 03:00:00;;;;;;;18.55;7.55;;;;;;;2.39;68.92;62250.69;5064892;28;20309;-79
2022/03/24 03:02:27;;;;;;;10.27;6.45;;;;;;;2.42;69.12;62248.72;5041541;28;20234;-80
2022/03/24 03:04:54;;;;;;;9.95;6.13;;;;;;;2.36;69.58;62243.06;5035192;28;20244;-79
2022/03/24 03:07:22;;;;;;;12.88;6.40;;;;;;;2.28;70.61;62237.38;5047214;28;20217;-80
2022/03/24 03:09:50;;;;;;;15.10;7.72;;;;;;;2.25;70.00;62233.78;5046666;28;20213;-78
2022/03/24 03:12:17;;;;;;;12.45;6.20;;;;;;;2.24;69.21;62230.25;5047887;28;20256;-79
2022/03/24 03:14:47;;;;;;;12.15;6.50;;;;;;;2.19;69.31;62222.59;5029431;28;20203;-80
2022/03/24 03:17:16;;;;;;;10.82;6.93;;;;;;;2.20;69.11;62226.13;5031348;28;20222;-79
2022/03/24 03:19:45;;;;;;;13.60;6.65;;;;;;;2.16;69.29;62222.53;5036299;28;20198;-79
2022/03/24 03:22:12;;;;;;;11.23;6.55;;;;;;;2.15;69.18;62226.53;5047225;28;20229;-80
2022/03/24 03:24:40;;;;;;;7.35;5.13;;;;;;;2.09;69.51;62217.88;5048074;28;20199;-80
2022/03/24 03:27:08;;;;;;;10.38;6.22;;;;;;;2.08;70.68;62213.81;5047085;28;20253;-79
2022/03/24 03:29:35;;;;;;;13.43;6.38;;;;;;;2.02;70.83;62207.66;5046743;28;20417;-79
2022/03/24 03:32:04;;;;;;;10.55;6.75;;;;;;;1.97;70.65;62205.53;5046477;28;20241;-79
2022/03/24 03:34:31;;;;;;;14.25;6.32;;;;;;;1.98;70.73;62203.56;5046537;28;20198;-79
2022/03/24 03:36:59;;;;;;;9.50;5.95;;;;;;;1.97;71.37;62208.06;5045242;28;20245;-80
2022/03/24 03:39:27;;;;;;;13.68;7.15;;;;;;;1.88;71.77;62191.28;5049407;28;20224;-80
2022/03/24 03:41:55;;;;;;;16.02;6.72;;;;;;;1.86;72.67;62188.72;5042498;28;20219;-80
2022/03/24 03:44:23;;;;;;;7.65;6.43;;;;;;;1.85;73.68;62190.19;5032103;28;20241;-80
2022/03/24 03:46:51;;;;;;;11.48;6.82;;;;;;;1.81;74.31;62183.59;5047824;28;20222;-79
2022/03/24 03:49:20;;;;;;;10.68;5.50;;;;;;;1.82;75.47;62187.13;5047325;28;20236;-79
2022/03/24 03:51:47;;;;;;;8.20;5.85;;;;;;;1.75;76.45;62177.41;5047420;28;20240;-79
2022/03/24 03:54:15;;;;;;;8.40;5.78;;;;;;;1.74;76.44;62178.91;5047016;28;20273;-81
2022/03/24 03:56:42;;;;;;;15.43;6.25;;;;;;;1.69;76.34;62176.78;5045757;28;20428;-80
2022/03/24 03:59:09;;;;;;;10.38;5.85;;;;;;;1.68;75.86;62175.78;5046811;28;20269;-80
2022/03/24 04:01:36;;;;;;;11.48;5.40;;;;;;;1.66;75.77;62171.22;5034321;28;20222;-79
2022/03/24 04:04:04;;;;;;;12.27;6.15;;;;;;;1.68;75.67;62172.75;5050418;28;20205;-81
2022/03/24 04:06:32;;;;;;;10.13;5.35;;;;;;;1.68;76.03;62175.78;5045695;28;20259;-79
2022/03/24 04:08:59;;;;;;;6.47;5.78;;;;;;;1.67;76.66;62169.72;5051159;28;20202;-79
2022/03/24 04:11:26;;;;;;;8.82;5.68;;;;;;;1.69;76.44;62173.78;5052494;28;20272;-79
2022/03/24 04:13:53;;;;;;;13.70;6.90;;;;;;;1.60;75.47;62165.06;5049129;28;20214;-79
2022/03/24 04:16:20;;;;;;;13.00;7.30;;;;;;;1.63;73.87;62168.13;5036515;28;20269;-80
2022/03/24 04:18:47;;;;;;;8.23;6.28;;;;;;;1.65;74.44;62170.19;5051648;28;20232;-80
2022/03/24 04:21:15;;;;;;;12.63;6.82;;;;;;;1.63;75.72;62170.13;5050399;28;20539;-79
2022/03/24 04:23:44;;;;;;;11.52;6.63;;;;;;;1.62;75.79;62172.13;5051062;28;20594;-79
2022/03/24 04:26:12;;;;;;;21.33;7.20;;;;;;;1.60;76.46;62167.56;5050762;28;20194;-79
2022/03/24 04:28:39;;;;;;;14.60;5.55;;;;;;;1.58;77.34;62163.00;5050255;28;20229;-80
2022/03/24 04:31:06;;;;;;;7.65;5.55;;;;;;;1.59;77.86;62163.53;5050891;28;20550;-80
2022/03/24 04:33:33;;;;;;;9.98;5.68;;;;;;;1.66;77.86;62173.19;5043616;28;20220;-79
2022/03/24 04:36:00;;;;;;;8.68;6.00;;;;;;;1.63;78.57;62173.16;5050730;28;20241;-80
2022/03/24 04:38:28;;;;;;;7.00;5.07;;;;;;;1.72;77.89;62179.88;5044501;28;20254;-80
2022/03/24 04:40:56;;;;;;;7.68;5.03;;;;;;;1.78;78.06;62183.00;5046806;28;20659;-78
2022/03/24 04:43:23;;;;;;;11.25;5.80;;;;;;;1.80;77.34;62188.09;5068152;28;20233;-79
2022/03/24 04:45:50;;;;;;;9.25;5.53;;;;;;;1.80;77.39;62187.56;5033977;28;20194;-78
2022/03/24 04:48:18;;;;;;;15.13;6.13;;;;;;;1.90;76.36;62195.84;5035972;28;20222;-80
2022/03/24 04:50:45;;;;;;;13.07;6.82;;;;;;;2.00;76.53;62208.13;5057235;28;20214;-79
2022/03/24 04:53:14;;;;;;;13.55;7.85;;;;;;;2.01;76.20;62209.13;5043035;28;20230;-79
2022/03/24 04:55:41;;;;;;;13.80;7.68;;;;;;;2.08;74.99;62211.31;5031056;28;20217;-79
2022/03/24 04:58:09;;;;;;;16.00;8.30;;;;;;;2.21;72.30;62227.16;5031679;28;20230;-79
2022/03/24 05:00:36;;;;;;;14.35;8.30;;;;;;;2.29;72.35;62238.41;5047312;28;20201;-80
2022/03/24 05:03:04;;;;;;;14.48;7.80;;;;;;;2.38;71.99;62242.13;5048708;28;20218;-78
2022/03/24 05:05:31;;;;;;;16.25;8.77;;;;;;;2.46;71.76;62255.34;5050050;28;20198;-78
2022/03/24 05:07:58;;;;;;;16.23;7.10;;;;;;;2.57;71.01;62268.66;5046572;28;20229;-78
2022/03/24 05:10:25;;;;;;;13.18;8.57;;;;;;;2.74;68.70;62283.59;5029942;28;20202;-79
2022/03/24 05:12:52;;;;;;;15.93;7.60;;;;;;;2.79;68.51;62286.75;5029919;28;20277;-78
2022/03/24 05:15:20;;;;;;;15.40;8.68;;;;;;;2.87;68.17;62294.97;5039028;28;20202;-80
2022/03/24 05:17:47;;;;;;;17.45;8.40;;;;;;;2.94;65.43;62304.16;5041490;28;20289;-80
2022/03/24 05:20:14;;;;;;;17.42;7.65;;;;;;;3.09;64.38;62317.06;5030968;28;20195;-79
2022/03/24 05:22:41;;;;;;;15.10;8.80;;;;;;;3.13;63.81;62326.72;5041555;28;20449;-79
2022/03/24 05:25:09;;;;;;;17.27;9.38;;;;;;;3.16;65.08;62322.25;5047663;28;20265;-78
2022/03/24 05:27:36;;;;;;;17.30;9.52;;;;;;;3.23;65.89;62328.94;5048348;28;20221;-80
2022/03/24 05:30:03;;;;;;;17.65;9.07;;;;;;;3.31;65.74;62342.69;5048447;28;20218;-80
2022/03/24 05:32:32;;;;;;;17.25;9.40;;;;;;;3.46;65.59;62355.09;5047422;28;20238;-79
2022/03/24 05:34:59;;;;;;;22.90;10.57;;;;;;;3.55;63.39;62366.88;5038743;28;20202;-79
2022/03/24 05:37:25;;;;;;;24.08;10.63;;;;;;;3.68;61.91;62382.22;5048499;28;20260;-80
2022/03/24 05:39:52;;;;;;;16.73;8.55;;;;;;;3.68;67.13;62380.22;5033861;28;20198;-79
2022/03/24 05:42:20;;;;;;;16.65;9.18;;;;;;;3.63;70.35;62372.56;5034431;28;20222;-78
2022/03/24 05:44:49;;;;;;;12.00;7.93;;;;;;;3.71;66.94;62385.34;5046707;28;20545;-78
2022/03/24 05:47:17;;;;;;;16.45;9.43;;;;;;;3.83;64.01;62387.59;5045580;28;20472;-78
2022/03/24 05:49:45;;;;;;;26.35;10.30;;;;;;;3.83;63.16;62392.63;5047680;28;20189;-78
2022/03/24 05:52:12;;;;;;;14.80;9.60;;;;;;;3.95;61.82;62407.50;5047701;28;20252;-80
2022/03/24 05:54:39;;;;;;;16.40;9.80;;;;;;;4.11;62.53;62426.47;5043556;28;20197;-79
2022/03/24 05:57:06;;;;;;;18.83;10.27;;;;;;;4.32;59.65;62443.56;5035474;28;20218;-79
2022/03/24 05:59:33;;;;;;;20.08;10.05;;;;;;;4.49;58.80;62461.06;5032812;28;20214;-79
2022/03/24 06:02:00;;;;;;;24.45;10.75;;;;;;;4.58;57.88;62470.31;5046504;28;20550;-78
2022/03/24 06:04:30;;;;;;;18.02;11.00;;;;;;;4.76;58.88;62490.34;5047931;28;20198;-80
2022/03/24 06:07:01;;;;;;;25.95;10.38;;;;;;;4.86;57.47;62501.16;5036594;28;20260;-78
2022/03/24 06:09:29;;;;;;;32.92;11.35;;;;;;;5.02;57.40;62522.66;5031024;28;20255;-79
2022/03/24 06:11:56;;;;;;;30.42;11.43;;;;;;;5.05;57.65;62520.19;5032314;28;20546;-79
2022/03/24 06:14:25;;;;;;;28.73;11.10;;;;;;;5.18;57.51;62531.06;5028485;28;20244;-80
2022/03/24 06:16:52;;;;;;;26.35;11.20;;;;;;;5.24;57.07;62537.25;5049073;28;20535;-79
2022/03/24 06:19:20;;;;;;;26.55;13.15;;;;;;;5.24;57.32;62542.81;5041163;28;20199;-78
2022/03/24 06:21:47;;;;;;;19.13;11.43;;;;;;;5.18;56.00;62534.09;5056436;28;20277;-79
2022/03/24 06:24:15;;;;;;;18.90;11.35;;;;;;;5.32;55.65;62542.94;5047835;28;20206;-80
2022/03/24 06:26:42;;;;;;;24.10;11.80;;;;;;;5.48;54.93;62565.00;5045584;28;20202;-79
2022/03/24 06:29:11;;;;;;;26.17;13.02;;;;;;;5.56;54.68;62568.19;5041087;28;20205;-78
2022/03/24 06:31:38;;;;;;;21.73;12.00;;;;;;;5.70;55.59;62587.66;5027969;28;20254;-80
2022/03/24 06:34:05;;;;;;;23.02;12.93;;;;;;;5.83;55.33;62600.59;5041380;28;20228;-78
2022/03/24 06:36:32;;;;;;;33.92;12.50;;;;;;;6.02;54.81;62617.13;5053435;28;20329;-77
2022/03/24 06:38:58;;;;;;;27.38;12.88;;;;;;;6.13;54.58;62620.84;5050132;28;20253;-77
2022/03/24 06:41:27;;;;;;;26.25;12.20;;;;;;;6.16;53.87;62634.56;5037144;28;20226;-78
2022/03/24 06:43:55;;;;;;;25.38;12.05;;;;;;;6.15;53.20;62627.97;5042812;28;20214;-77
2022/03/24 06:46:23;;;;;;;32.22;11.75;;;;;;;6.03;53.15;62618.66;5042689;28;20237;-77
2022/03/24 06:48:49;;;;;;;28.88;12.85;;;;;;;6.17;54.04;62630.03;5043391;28;20222;-77
2022/03/24 06:51:17;;;;;;;33.03;12.07;;;;;;;6.31;54.35;62647.53;5046315;28;20198;-77
2022/03/24 06:53:45;;;;;;;21.10;11.35;;;;;;;6.35;53.39;62653.66;5043455;28;20222;-77
2022/03/24 06:56:12;;;;;;;26.10;12.45;;;;;;;6.33;53.47;62649.59;5043828;28;20206;-77
2022/03/24 06:58:40;;;;;;;22.20;11.50;;;;;;;6.26;52.41;62639.31;5042081;28;20550;-76
2022/03/24 07:01:07;;;;;;;20.20;12.10;;;;;;;6.45;52.58;62661.44;5043520;28;20198;-77
2022/03/24 07:03:34;;;;;;;23.65;11.00;;;;;;;6.59;53.00;62680.94;5036633;28;20230;-77
2022/03/24 07:06:01;;;;;;;31.48;12.20;;;;;;;6.71;52.78;62688.75;5036167;28;20198;-78
2022/03/24 07:08:28;;;;;;;23.95;13.30;;;;;;;6.78;52.48;62698.50;5043301;28;20214;-77
2022/03/24 07:10:55;;;;;;;37.80;12.43;;;;;;;6.64;52.50;62681.03;5041587;28;20213;-76
2022/03/24 07:13:23;;;;;;;29.60;12.93;;;;;;;6.76;51.70;62695.94;5044579;28;20534;-78
2022/03/24 07:15:51;;;;;;;36.03;12.50;;;;;;;6.93;52.14;62716.00;5044757;28;20202;-78
2022/03/24 07:18:18;;;;;;;25.98;11.48;;;;;;;7.07;51.33;62728.44;5036104;28;20253;-77
2022/03/24 07:20:45;;;;;;;25.95;12.80;;;;;;;7.06;50.76;62726.38;5043676;28;20199;-79
2022/03/24 07:23:12;;;;;;;24.60;11.30;;;;;;;7.20;50.66;62738.78;5034479;28;20305;-79
2022/03/24 07:25:39;;;;;;;27.42;12.60;;;;;;;7.34;49.81;62755.25;5042358;28;20490;-77
2022/03/24 07:28:07;;;;;;;28.95;12.73;;;;;;;7.26;49.85;62747.00;5038556;28;20249;-79
2022/03/24 07:30:35;;;;;;;29.60;13.27;;;;;;;7.32;50.48;62748.13;5044333;28;20202;-80
2022/03/24 07:33:03;;;;;;;26.30;13.48;;;;;;;7.41;50.06;62760.47;5039137;28;20284;-80
2022/03/24 07:35:33;;;;;;;37.92;12.38;;;;;;;7.41;49.74;62763.00;5040964;28;20483;-78
2022/03/24 07:38:00;;;;;;;26.42;14.32;;;;;;;7.58;49.48;62780.03;5031735;28;20214;-78
2022/03/24 07:40:28;;;;;;;26.92;14.15;;;;;;;7.67;49.29;62791.84;5032849;28;20280;-78
2022/03/24 07:42:57;;;;;;;29.52;14.77;;;;;;;7.73;48.63;62795.53;5047736;28;20229;-79
2022/03/24 07:45:25;;;;;;;25.17;13.93;;;;;;;7.78;48.04;62801.19;5048917;28;20499;-80
2022/03/24 07:48:12;;;;;;;26.80;13.32;;;;;;;7.92;47.70;62818.19;5047996;28;20232;-79
2022/03/24 07:50:42;;;;;;;27.27;14.35;;;;;;;8.01;48.09;62821.88;5038805;28;20420;-78
2022/03/24 07:53:35;;;;;;;31.75;13.85;;;;;;;8.14;47.79;62838.34;5038916;28;20284;-76
2022/03/24 07:56:02;;;;;;;39.78;15.15;;;;;;;8.15;47.48;62836.88;5024617;28;20265;-80
2022/03/24 07:58:29;;;;;;;31.73;14.35;;;;;;;8.29;46.73;62852.84;5038941;28;20254;-77
2022/03/24 08:00:57;;;;;;;32.28;14.38;;;;;;;8.45;46.81;62869.38;5036681;28;20206;-79
2022/03/24 08:03:26;;;;;;;28.33;14.35;;;;;;;8.55;46.55;62877.16;5035897;28;20476;-77
2022/03/24 08:05:53;;;;;;;30.02;16.35;;;;;;;8.79;46.39;62902.47;5030478;28;20206;-75
2022/03/24 08:08:20;;;;;;;37.53;14.65;;;;;;;8.83;46.02;62903.56;5033692;28;20218;-76
2022/03/24 08:10:49;;;;;;;26.55;14.48;;;;;;;8.79;44.61;62904.50;5035402;28;20198;-77
2022/03/24 08:13:18;;;;;;;26.83;13.43;;;;;;;8.81;45.14;62907.09;5031386;28;20237;-76
2022/03/24 08:15:45;;;;;;;32.35;15.23;;;;;;;8.88;45.13;62911.25;5034441;28;20195;-77
2022/03/24 08:18:13;;;;;;;34.00;13.93;;;;;;;9.07;44.53;62933.44;5032279;28;20214;-76
2022/03/24 08:20:42;;;;;;;34.03;14.07;;;;;;;9.14;44.10;62941.19;5034603;28;20195;-76
2022/03/24 08:23:13;;;;;;;23.63;12.65;;;;;;;9.12;44.25;62933.53;5031529;28;20221;-75
2022/03/24 08:25:41;;;;;;;24.73;13.48;;;;;;;9.35;44.48;62962.91;5033116;28;20238;-77
2022/03/24 08:28:08;;;;;;;28.40;14.20;;;;;;;9.57;43.62;62979.53;5035379;28;20229;-77
2022/03/24 08:30:35;;;;;;;23.38;13.77;;;;;;;9.65;42.56;62985.25;5031409;28;20277;-78
2022/03/24 08:33:02;;;;;;;27.52;13.13;;;;;;;9.69;43.41;62997.03;5032185;28;20519;-78
2022/03/24 08:35:29;;;;;;;28.98;13.80;;;;;;;9.91;43.41;63015.22;5033972;28;20195;-77
2022/03/24 08:37:59;;;;;;;19.88;11.77;;;;;;;10.12;41.99;63038.97;5034167;28;20452;-77
2022/03/24 08:40:27;;;;;;;33.30;12.88;;;;;;;10.36;41.05;63066.34;5035283;28;20213;-78
2022/03/24 08:42:54;;;;;;;26.80;12.77;;;;;;;10.61;40.60;63091.72;5036634;28;20301;-79
2022/03/24 08:45:20;;;;;;;20.77;13.00;;;;;;;10.80;40.23;63109.38;5036193;28;20202;-77
2022/03/24 08:47:48;;;;;;;21.13;11.82;;;;;;;10.81;39.76;63115.47;5035822;28;20248;-76
2022/03/24 08:50:16;;;;;;;22.95;11.43;;;;;;;10.92;39.72;63123.81;5039321;28;20248;-79
2022/03/24 08:52:43;;;;;;;27.80;11.13;;;;;;;10.90;39.84;63121.72;5036331;28;20293;-79
2022/03/24 08:55:14;;;;;;;19.75;11.38;;;;;;;11.19;40.17;63146.66;5040418;28;20202;-79
2022/03/24 08:57:42;;;;;;;25.95;11.05;;;;;;;11.44;39.48;63175.13;5040854;28;20590;-79
2022/03/24 09:00:13;;;;;;;24.35;10.63;;;;;;;11.62;39.35;63191.72;5050454;28;20208;-78
2022/03/24 09:02:41;;;;;;;19.75;9.77;;;;;;;11.79;39.14;63211.38;5048250;28;20256;-77
2022/03/24 09:05:08;;;;;;;22.40;10.73;;;;;;;11.89;38.95;63223.78;5029817;28;20202;-77
2022/03/24 09:07:36;;;;;;;18.95;9.68;;;;;;;11.96;39.05;63226.44;5033769;28;20233;-78
2022/03/24 09:10:05;;;;;;;24.95;9.05;;;;;;;12.02;38.42;63237.25;5068011;28;20289;-77
2022/03/24 09:12:35;;;;;;;24.10;8.10;;;;;;;12.04;38.31;63239.84;5050184;28;20229;-77
2022/03/24 09:15:05;;;;;;;10.65;6.43;;;;;;;12.17;38.01;63250.75;5050365;28;20205;-78
2022/03/24 09:17:32;;;;;;;11.63;5.53;;;;;;;12.40;37.16;63277.16;5048826;28;20233;-78
2022/03/24 09:19:59;;;;;;;7.18;5.93;;;;;;;12.56;36.21;63293.22;5047779;28;20202;-79
2022/03/24 09:22:26;;;;;;;12.23;5.38;;;;;;;12.69;34.62;63309.25;5048998;28;20260;-77
2022/03/24 09:24:53;;;;;;;10.73;5.55;;;;;;;12.78;34.68;63316.56;5045938;28;20202;-76
2022/03/24 09:27:19;;;;;;;7.38;5.65;;;;;;;12.56;34.24;63293.22;5040358;28;20222;-76
2022/03/24 09:29:49;;;;;;;11.15;5.40;;;;;;;12.72;34.20;63307.78;5046956;28;20472;-79
2022/03/24 09:32:16;;;;;;;8.30;5.72;;;;;;;12.97;33.38;63335.22;5048256;28;20241;-79
2022/03/24 09:34:43;;;;;;;10.97;5.90;;;;;;;12.91;33.44;63331.56;5045159;28;20783;-77
2022/03/24 09:37:12;;;;;;;16.98;5.60;;;;;;;13.23;32.64;63362.22;5046603;28;20664;-79
2022/03/24 09:39:40;;;;;;;11.70;5.13;;;;;;;13.48;32.06;63388.16;5046483;28;20194;-78
2022/03/24 09:42:07;;;;;;;7.80;4.85;;;;;;;13.30;31.52;63369.47;5047600;28;20222;-77
2022/03/24 09:44:34;;;;;;;10.60;4.90;;;;;;;13.47;31.40;63387.63;5045481;28;20213;-78
2022/03/24 09:47:02;;;;;;;7.10;5.47;;;;;;;13.41;30.96;63376.28;5046391;28;20272;-77
2022/03/24 09:49:29;;;;;;;11.60;5.20;;;;;;;13.32;30.92;63374.63;5046126;28;20423;-75
2022/03/24 09:51:56;;;;;;;9.02;5.45;;;;;;;13.25;30.58;63362.25;5045917;28;20346;-77
2022/03/24 09:54:23;;;;;;;10.57;5.00;;;;;;;13.48;29.89;63385.59;5044103;28;20534;-76
2022/03/24 09:56:50;;;;;;;8.20;4.38;;;;;;;13.64;29.96;63407.31;5044889;28;20280;-76
2022/03/24 09:59:17;;;;;;;10.18;5.53;;;;;;;13.90;29.99;63426.63;5044663;28;20244;-75
2022/03/24 10:01:44;;;;;;;14.52;4.90;;;;;;;13.73;29.87;63414.09;5025808;28;20229;-76
2022/03/24 10:04:14;;;;;;;10.02;5.05;;;;;;;13.87;29.78;63429.13;5033376;28;20225;-77
2022/03/24 10:06:59;;;;;;;8.85;6.03;;;;;;;13.98;29.35;63442.09;5026037;28;20198;-76
2022/03/24 10:09:39;;;;;;;10.88;5.63;;;;;;;14.13;29.37;63455.63;5031669;28;20233;-76
2022/03/24 10:12:07;;;;;;;14.40;5.53;;;;;;;14.07;27.69;63453.97;5035763;28;20543;-75
2022/03/24 10:14:34;;;;;;;6.75;5.28;;;;;;;14.00;28.56;63444.16;5042469;28;20202;-77
2022/03/24 10:17:08;;;;;;;7.30;5.28;;;;;;;14.13;29.04;63455.09;5037981;28;20218;-78
2022/03/24 10:19:38;;;;;;;5.88;5.28;;;;;;;14.26;28.58;63469.13;5034226;28;20380;-77
2022/03/24 10:22:09;;;;;;;6.75;5.05;;;;;;;14.40;27.71;63480.59;5027104;28;20228;-77
2022/03/24 10:24:44;;;;;;;5.57;4.95;;;;;;;14.63;25.99;63507.56;5044369;28;20209;-78
2022/03/24 10:27:13;;;;;;;7.28;5.55;;;;;;;14.68;26.04;63512.25;5031692;28;20218;-77
2022/03/24 10:29:40;;;;;;;16.58;5.22;;;;;;;14.53;25.78;63494.59;5029041;28;20201;-76
2022/03/24 10:32:14;;;;;;;7.30;5.65;;;;;;;14.78;26.26;63520.06;5043526;28;20491;-77
2022/03/24 10:34:46;;;;;;;6.95;6.05;;;;;;;14.56;25.21;63497.75;5043171;28;20202;-76
2022/03/24 10:37:17;;;;;;;7.88;5.00;;;;;;;14.84;25.17;63529.38;5041563;28;20252;-77
2022/03/24 10:39:57;;;;;;;7.63;5.05;;;;;;;14.90;25.17;63538.19;5043072;28;20258;-78
2022/03/24 10:42:27;;;;;;;13.68;4.68;;;;;;;15.06;25.89;63552.22;5041351;28;20225;-77
2022/03/24 10:45:07;;;;;;;8.30;5.95;;;;;;;15.25;25.09;63573.50;5042624;28;20465;-77
2022/03/24 10:47:39;;;;;;;7.72;5.43;;;;;;;15.23;24.86;63571.41;5043508;28;20221;-77
2022/03/24 10:50:40;;;;;;;8.40;5.40;;;;;;;15.20;25.68;63568.84;5044943;28;20202;-77
2022/03/24 10:53:09;;;;;;;5.45;4.93;;;;;;;15.21;25.04;63569.88;5039721;28;20232;-76
2022/03/24 10:56:00;;;;;;;7.25;5.38;;;;;;;15.21;24.67;63566.78;5036038;28;20267;-77
2022/03/24 10:58:35;;;;;;;7.43;5.00;;;;;;;15.31;25.36;63582.81;5045294;28;20358;-77
2022/03/24 11:01:03;;;;;;;11.32;5.40;;;;;;;15.45;25.01;63594.31;5044819;28;20419;-78
2022/03/24 11:03:30;;;;;;;10.02;4.78;;;;;;;15.45;25.65;63596.88;5044619;28;20230;-77
2022/03/24 11:06:09;;;;;;;10.15;5.38;;;;;;;15.40;25.63;63591.69;5029430;28;20264;-77
2022/03/24 11:08:36;;;;;;;8.18;4.75;;;;;;;15.39;24.96;63586.00;5037713;28;20457;-77
2022/03/24 11:11:08;;;;;;;5.57;5.07;;;;;;;15.21;25.52;63569.34;5045595;28;20206;-77
2022/03/24 11:13:44;;;;;;;6.82;4.65;;;;;;;15.40;24.79;63587.06;5046095;28;20244;-78
2022/03/24 11:16:12;;;;;;;6.22;5.18;;;;;;;15.52;24.71;63599.53;5047807;28;20297;-78
2022/03/24 11:18:40;;;;;;;8.25;5.13;;;;;;;15.61;24.85;63608.38;5044363;28;20218;-78
2022/03/24 11:21:13;;;;;;;8.55;5.35;;;;;;;15.73;24.53;63623.94;5031521;28;20226;-77
2022/03/24 11:23:40;;;;;;;10.90;5.88;;;;;;;15.66;25.11;63613.56;5030449;28;20214;-79
2022/03/24 11:26:09;;;;;;;6.20;5.05;;;;;;;15.81;24.42;63629.16;5033345;28;20216;-78
2022/03/24 11:28:37;;;;;;;8.20;5.57;;;;;;;15.78;24.77;63624.00;5044816;28;20221;-78
2022/03/24 11:31:07;;;;;;;10.30;6.35;;;;;;;15.80;24.37;63628.13;5028732;28;20199;-78
2022/03/24 11:33:43;;;;;;;9.38;6.40;;;;;;;15.74;24.46;63619.84;5029076;28;20257;-77
2022/03/24 11:36:13;;;;;;;8.52;6.15;;;;;;;15.83;24.55;63629.19;5046924;28;20201;-75